Terminal Aerodrome Forecast
Issued by NWS

Home | Current Version | Previous Version | Text Only | Print | Product List | Glossary On
Versions: 1 2 3 4 5 6 7 8 9 10 11 12 13 14 15 16 17 18 19 20 21 22 23 24 25 26 27 28 29 30 31 32 33
000
FTUS45 KCYS 061127
TAFAIA
TAF
KAIA 061127Z 0612/0712 02014KT 4SM BR SCT005 OVC015
      TEMPO 0612/0616 2SM -RA BR OVC005
     FM061700 02012KT P6SM -SHRA OVC025
     FM062000 02008KT P6SM OVC050
     FM070600 15006KT P6SM BKN050=

USA.gov is the U.S. government's official web portal to all federal, state and local government web resources and services.